Chesterfield Inlet, Canada
Current Conditions -  °F | °C
As of 3:00 AM on Sunday 23 Nov 2014 (Local Time) from CYRT Reporting Station
Ice Pellets Ice Pellets  
Wind Chill: -52°   Ceiling: Unl
Heat Index: -24°   Visibility: 15mi
Dew Point: -31°   Wind: 18mph
Humidity: 69%   Direction: 300°WNW
Pressure: 29.65"   Gusts: NA
Location:  63.33°N, 90.7°W
Report Text: CYRT 230900Z 30016KT 15SM IC SKC M31/M35 A2965 RMK SLP047
Loading
Personal Weather Stations






























Interactive Weather Map New forecast layout! Learn more

10-Day Weather Forecast

Advertisements
Track Severe Weather on mobile